sensor_id;sensor_type;location;lat;lon;timestamp;P1;durP1;ratioP1;P2;durP2;ratioP2
46411;SDS011;32113;42.012;24.870;2023-02-28T00:00:10;33.83;;;7.47;;
46411;SDS011;32113;42.012;24.870;2023-02-28T00:02:40;28.00;;;6.72;;
46411;SDS011;32113;42.012;24.870;2023-02-28T00:05:08;25.42;;;7.85;;
46411;SDS011;32113;42.012;24.870;2023-02-28T00:07:35;38.80;;;7.78;;
46411;SDS011;32113;42.012;24.870;2023-02-28T00:10:01;31.00;;;8.35;;
46411;SDS011;32113;42.012;24.870;2023-02-28T00:12:27;30.85;;;8.77;;
46411;SDS011;32113;42.012;24.870;2023-02-28T00:14:53;34.63;;;8.40;;
46411;SDS011;32113;42.012;24.870;2023-02-28T00:17:18;40.00;;;7.25;;
46411;SDS011;32113;42.012;24.870;2023-02-28T00:19:48;33.95;;;7.97;;
46411;SDS011;32113;42.012;24.870;2023-02-28T00:22:15;36.10;;;8.18;;
46411;SDS011;32113;42.012;24.870;2023-02-28T00:24:42;36.42;;;7.68;;
46411;SDS011;32113;42.012;24.870;2023-02-28T00:27:07;31.58;;;7.53;;
46411;SDS011;32113;42.012;24.870;2023-02-28T00:29:33;41.08;;;8.45;;
46411;SDS011;32113;42.012;24.870;2023-02-28T00:31:58;29.10;;;8.15;;
46411;SDS011;32113;42.012;24.870;2023-02-28T00:34:24;29.63;;;6.57;;
46411;SDS011;32113;42.012;24.870;2023-02-28T00:36:49;34.78;;;9.15;;
46411;SDS011;32113;42.012;24.870;2023-02-28T00:39:15;41.67;;;10.55;;
46411;SDS011;32113;42.012;24.870;2023-02-28T00:41:40;34.50;;;7.95;;
46411;SDS011;32113;42.012;24.870;2023-02-28T00:44:06;33.97;;;7.22;;
46411;SDS011;32113;42.012;24.870;2023-02-28T00:46:31;30.33;;;6.68;;
46411;SDS011;32113;42.012;24.870;2023-02-28T00:48:57;26.90;;;7.25;;
46411;SDS011;32113;42.012;24.870;2023-02-28T00:51:22;29.73;;;7.22;;
46411;SDS011;32113;42.012;24.870;2023-02-28T00:53:47;36.35;;;8.38;;
46411;SDS011;32113;42.012;24.870;2023-02-28T00:56:13;32.53;;;7.00;;
46411;SDS011;32113;42.012;24.870;2023-02-28T00:58:38;32.65;;;6.60;;
46411;SDS011;32113;42.012;24.870;2023-02-28T01:01:04;37.85;;;7.70;;
46411;SDS011;32113;42.012;24.870;2023-02-28T01:03:30;32.08;;;8.15;;
46411;SDS011;32113;42.012;24.870;2023-02-28T01:05:56;34.55;;;8.63;;
46411;SDS011;32113;42.012;24.870;2023-02-28T01:08:21;35.42;;;9.32;;
46411;SDS011;32113;42.012;24.870;2023-02-28T01:10:47;31.33;;;8.40;;
46411;SDS011;32113;42.012;24.870;2023-02-28T01:13:13;28.45;;;6.80;;
46411;SDS011;32113;42.012;24.870;2023-02-28T01:15:40;31.35;;;7.40;;
46411;SDS011;32113;42.012;24.870;2023-02-28T01:18:08;31.27;;;7.63;;
46411;SDS011;32113;42.012;24.870;2023-02-28T01:20:36;39.78;;;9.10;;
46411;SDS011;32113;42.012;24.870;2023-02-28T01:23:02;34.40;;;8.20;;
46411;SDS011;32113;42.012;24.870;2023-02-28T01:25:27;30.33;;;8.88;;
46411;SDS011;32113;42.012;24.870;2023-02-28T01:27:53;33.15;;;8.90;;
46411;SDS011;32113;42.012;24.870;2023-02-28T01:30:18;36.80;;;9.73;;
46411;SDS011;32113;42.012;24.870;2023-02-28T01:32:44;28.63;;;8.50;;
46411;SDS011;32113;42.012;24.870;2023-02-28T01:35:09;37.17;;;9.00;;
46411;SDS011;32113;42.012;24.870;2023-02-28T01:37:35;24.85;;;8.25;;
46411;SDS011;32113;42.012;24.870;2023-02-28T01:40:00;30.10;;;8.82;;
46411;SDS011;32113;42.012;24.870;2023-02-28T01:42:26;33.20;;;8.57;;
46411;SDS011;32113;42.012;24.870;2023-02-28T01:44:59;30.73;;;8.50;;
46411;SDS011;32113;42.012;24.870;2023-02-28T01:47:35;31.63;;;8.20;;
46411;SDS011;32113;42.012;24.870;2023-02-28T01:50:04;25.58;;;7.45;;
46411;SDS011;32113;42.012;24.870;2023-02-28T01:52:34;29.90;;;8.07;;
46411;SDS011;32113;42.012;24.870;2023-02-28T01:55:01;30.35;;;8.55;;
46411;SDS011;32113;42.012;24.870;2023-02-28T01:57:30;33.10;;;6.97;;
46411;SDS011;32113;42.012;24.870;2023-02-28T02:00:24;27.50;;;7.75;;
46411;SDS011;32113;42.012;24.870;2023-02-28T02:02:51;33.10;;;7.50;;
46411;SDS011;32113;42.012;24.870;2023-02-28T02:05:23;37.42;;;9.10;;
46411;SDS011;32113;42.012;24.870;2023-02-28T02:08:04;31.35;;;7.75;;
46411;SDS011;32113;42.012;24.870;2023-02-28T02:10:33;31.63;;;6.47;;
46411;SDS011;32113;42.012;24.870;2023-02-28T02:18:55;30.05;;;6.82;;
46411;SDS011;32113;42.012;24.870;2023-02-28T02:27:25;36.05;;;7.15;;
46411;SDS011;32113;42.012;24.870;2023-02-28T02:38:46;42.67;;;7.47;;
46411;SDS011;32113;42.012;24.870;2023-02-28T02:41:18;27.77;;;5.85;;
46411;SDS011;32113;42.012;24.870;2023-02-28T02:43:50;40.30;;;7.05;;
46411;SDS011;32113;42.012;24.870;2023-02-28T02:46:19;25.63;;;6.78;;
46411;SDS011;32113;42.012;24.870;2023-02-28T02:48:46;26.50;;;6.47;;
46411;SDS011;32113;42.012;24.870;2023-02-28T02:51:14;27.70;;;6.18;;
46411;SDS011;32113;42.012;24.870;2023-02-28T02:53:50;40.13;;;7.50;;
46411;SDS011;32113;42.012;24.870;2023-02-28T02:56:21;29.33;;;7.35;;
46411;SDS011;32113;42.012;24.870;2023-02-28T02:58:51;28.17;;;7.18;;
46411;SDS011;32113;42.012;24.870;2023-02-28T03:01:22;25.02;;;7.15;;
46411;SDS011;32113;42.012;24.870;2023-02-28T03:04:15;28.65;;;6.60;;
46411;SDS011;32113;42.012;24.870;2023-02-28T03:06:41;35.88;;;7.63;;
46411;SDS011;32113;42.012;24.870;2023-02-28T03:09:07;30.63;;;8.00;;
46411;SDS011;32113;42.012;24.870;2023-02-28T03:11:32;22.52;;;8.85;;
46411;SDS011;32113;42.012;24.870;2023-02-28T03:14:13;31.42;;;10.65;;
46411;SDS011;32113;42.012;24.870;2023-02-28T03:17:04;22.38;;;10.10;;
46411;SDS011;32113;42.012;24.870;2023-02-28T03:22:27;30.35;;;13.45;;
46411;SDS011;32113;42.012;24.870;2023-02-28T03:33:30;23.00;;;10.80;;
46411;SDS011;32113;42.012;24.870;2023-02-28T03:36:18;23.50;;;10.50;;
46411;SDS011;32113;42.012;24.870;2023-02-28T03:38:51;36.78;;;11.30;;
46411;SDS011;32113;42.012;24.870;2023-02-28T03:41:27;24.48;;;10.93;;
46411;SDS011;32113;42.012;24.870;2023-02-28T03:43:59;29.00;;;10.57;;
46411;SDS011;32113;42.012;24.870;2023-02-28T03:46:31;28.58;;;11.10;;
46411;SDS011;32113;42.012;24.870;2023-02-28T03:52:02;28.52;;;10.75;;
46411;SDS011;32113;42.012;24.870;2023-02-28T03:54:32;23.08;;;11.05;;
46411;SDS011;32113;42.012;24.870;2023-02-28T03:57:05;27.27;;;11.75;;
46411;SDS011;32113;42.012;24.870;2023-02-28T03:59:39;23.85;;;11.60;;
46411;SDS011;32113;42.012;24.870;2023-02-28T04:02:09;21.38;;;11.45;;
46411;SDS011;32113;42.012;24.870;2023-02-28T04:04:34;20.00;;;11.63;;
46411;SDS011;32113;42.012;24.870;2023-02-28T04:07:01;20.08;;;11.43;;
46411;SDS011;32113;42.012;24.870;2023-02-28T04:09:31;26.45;;;11.95;;
46411;SDS011;32113;42.012;24.870;2023-02-28T04:11:56;24.65;;;12.70;;
46411;SDS011;32113;42.012;24.870;2023-02-28T04:14:22;22.98;;;12.48;;
46411;SDS011;32113;42.012;24.870;2023-02-28T04:16:48;25.88;;;12.25;;
46411;SDS011;32113;42.012;24.870;2023-02-28T04:19:14;26.67;;;12.77;;
46411;SDS011;32113;42.012;24.870;2023-02-28T04:21:49;24.95;;;13.02;;
46411;SDS011;32113;42.012;24.870;2023-02-28T04:24:17;26.10;;;13.43;;
46411;SDS011;32113;42.012;24.870;2023-02-28T04:26:46;23.77;;;13.20;;
46411;SDS011;32113;42.012;24.870;2023-02-28T04:29:17;27.83;;;13.38;;
46411;SDS011;32113;42.012;24.870;2023-02-28T04:31:44;23.17;;;13.13;;
46411;SDS011;32113;42.012;24.870;2023-02-28T04:34:10;23.45;;;13.73;;
46411;SDS011;32113;42.012;24.870;2023-02-28T04:36:35;27.70;;;12.98;;
46411;SDS011;32113;42.012;24.870;2023-02-28T04:39:01;19.75;;;13.32;;
46411;SDS011;32113;42.012;24.870;2023-02-28T04:41:26;20.77;;;12.38;;
46411;SDS011;32113;42.012;24.870;2023-02-28T04:43:52;21.10;;;13.82;;
46411;SDS011;32113;42.012;24.870;2023-02-28T04:46:17;27.45;;;12.90;;
46411;SDS011;32113;42.012;24.870;2023-02-28T04:48:43;20.08;;;13.35;;
46411;SDS011;32113;42.012;24.870;2023-02-28T04:51:10;21.52;;;12.73;;
46411;SDS011;32113;42.012;24.870;2023-02-28T04:53:38;22.05;;;13.15;;
46411;SDS011;32113;42.012;24.870;2023-02-28T04:56:06;20.95;;;11.77;;
46411;SDS011;32113;42.012;24.870;2023-02-28T04:58:33;16.80;;;11.43;;
46411;SDS011;32113;42.012;24.870;2023-02-28T05:01:03;18.17;;;11.70;;
46411;SDS011;32113;42.012;24.870;2023-02-28T05:03:38;21.27;;;12.00;;
46411;SDS011;32113;42.012;24.870;2023-02-28T05:08:31;20.85;;;11.32;;
46411;SDS011;32113;42.012;24.870;2023-02-28T05:10:56;27.40;;;11.88;;
46411;SDS011;32113;42.012;24.870;2023-02-28T05:13:22;22.55;;;12.30;;
46411;SDS011;32113;42.012;24.870;2023-02-28T05:15:48;20.45;;;12.10;;
46411;SDS011;32113;42.012;24.870;2023-02-28T05:18:13;18.45;;;11.30;;
46411;SDS011;32113;42.012;24.870;2023-02-28T05:20:38;18.25;;;12.30;;
46411;SDS011;32113;42.012;24.870;2023-02-28T05:23:04;23.38;;;12.88;;
46411;SDS011;32113;42.012;24.870;2023-02-28T05:25:29;23.30;;;11.75;;
46411;SDS011;32113;42.012;24.870;2023-02-28T05:27:54;19.55;;;11.98;;
46411;SDS011;32113;42.012;24.870;2023-02-28T05:30:20;24.48;;;13.02;;
46411;SDS011;32113;42.012;24.870;2023-02-28T05:32:49;31.92;;;20.63;;
46411;SDS011;32113;42.012;24.870;2023-02-28T05:35:15;24.83;;;15.00;;
46411;SDS011;32113;42.012;24.870;2023-02-28T05:37:41;23.42;;;14.27;;
46411;SDS011;32113;42.012;24.870;2023-02-28T05:40:06;20.13;;;12.18;;
46411;SDS011;32113;42.012;24.870;2023-02-28T05:42:35;19.00;;;11.60;;
46411;SDS011;32113;42.012;24.870;2023-02-28T05:45:01;21.42;;;12.02;;
46411;SDS011;32113;42.012;24.870;2023-02-28T05:47:27;22.85;;;12.73;;
46411;SDS011;32113;42.012;24.870;2023-02-28T05:49:53;23.77;;;13.32;;
46411;SDS011;32113;42.012;24.870;2023-02-28T05:52:18;21.05;;;12.55;;
46411;SDS011;32113;42.012;24.870;2023-02-28T05:54:44;23.55;;;12.38;;
46411;SDS011;32113;42.012;24.870;2023-02-28T05:57:10;20.08;;;13.20;;
46411;SDS011;32113;42.012;24.870;2023-02-28T05:59:36;24.45;;;12.82;;
46411;SDS011;32113;42.012;24.870;2023-02-28T06:02:04;21.52;;;12.43;;
46411;SDS011;32113;42.012;24.870;2023-02-28T06:04:30;24.15;;;13.77;;
46411;SDS011;32113;42.012;24.870;2023-02-28T06:06:56;30.92;;;16.10;;
46411;SDS011;32113;42.012;24.870;2023-02-28T06:09:22;33.15;;;15.85;;
46411;SDS011;32113;42.012;24.870;2023-02-28T06:11:47;29.95;;;17.38;;
46411;SDS011;32113;42.012;24.870;2023-02-28T06:14:16;26.70;;;16.10;;
46411;SDS011;32113;42.012;24.870;2023-02-28T06:16:43;32.60;;;16.88;;
46411;SDS011;32113;42.012;24.870;2023-02-28T06:19:08;35.70;;;16.88;;
46411;SDS011;32113;42.012;24.870;2023-02-28T06:21:35;23.73;;;16.15;;
46411;SDS011;32113;42.012;24.870;2023-02-28T06:24:01;32.53;;;17.92;;
46411;SDS011;32113;42.012;24.870;2023-02-28T06:26:27;34.92;;;18.30;;
46411;SDS011;32113;42.012;24.870;2023-02-28T06:28:53;39.13;;;21.15;;
46411;SDS011;32113;42.012;24.870;2023-02-28T06:31:19;32.22;;;22.00;;
46411;SDS011;32113;42.012;24.870;2023-02-28T06:33:45;37.90;;;22.30;;
46411;SDS011;32113;42.012;24.870;2023-02-28T06:36:12;38.72;;;22.05;;
46411;SDS011;32113;42.012;24.870;2023-02-28T06:38:39;39.42;;;21.25;;
46411;SDS011;32113;42.012;24.870;2023-02-28T06:41:05;42.97;;;21.88;;
46411;SDS011;32113;42.012;24.870;2023-02-28T06:43:33;30.73;;;19.65;;
46411;SDS011;32113;42.012;24.870;2023-02-28T06:46:01;35.03;;;20.50;;
46411;SDS011;32113;42.012;24.870;2023-02-28T06:48:28;39.80;;;22.15;;
46411;SDS011;32113;42.012;24.870;2023-02-28T06:51:04;37.05;;;22.52;;
46411;SDS011;32113;42.012;24.870;2023-02-28T06:53:38;47.83;;;23.23;;
46411;SDS011;32113;42.012;24.870;2023-02-28T06:56:04;40.22;;;23.27;;
46411;SDS011;32113;42.012;24.870;2023-02-28T06:58:34;36.80;;;23.00;;
46411;SDS011;32113;42.012;24.870;2023-02-28T07:01:00;35.55;;;23.35;;
46411;SDS011;32113;42.012;24.870;2023-02-28T07:03:26;44.67;;;23.33;;
46411;SDS011;32113;42.012;24.870;2023-02-28T07:05:51;41.25;;;25.20;;
46411;SDS011;32113;42.012;24.870;2023-02-28T07:08:17;36.50;;;22.10;;
46411;SDS011;32113;42.012;24.870;2023-02-28T07:10:42;37.47;;;22.88;;
46411;SDS011;32113;42.012;24.870;2023-02-28T07:13:08;35.45;;;22.45;;
46411;SDS011;32113;42.012;24.870;2023-02-28T07:15:35;39.63;;;23.40;;
46411;SDS011;32113;42.012;24.870;2023-02-28T07:18:01;37.15;;;21.10;;
46411;SDS011;32113;42.012;24.870;2023-02-28T07:20:26;29.55;;;19.02;;
46411;SDS011;32113;42.012;24.870;2023-02-28T07:22:51;37.28;;;18.83;;
46411;SDS011;32113;42.012;24.870;2023-02-28T07:25:24;39.33;;;19.08;;
46411;SDS011;32113;42.012;24.870;2023-02-28T07:27:53;27.77;;;16.60;;
46411;SDS011;32113;42.012;24.870;2023-02-28T07:30:19;33.13;;;17.48;;
46411;SDS011;32113;42.012;24.870;2023-02-28T07:32:45;35.33;;;17.58;;
46411;SDS011;32113;42.012;24.870;2023-02-28T07:35:10;27.95;;;17.02;;
46411;SDS011;32113;42.012;24.870;2023-02-28T07:37:36;34.58;;;16.35;;
46411;SDS011;32113;42.012;24.870;2023-02-28T07:40:03;27.23;;;16.15;;
46411;SDS011;32113;42.012;24.870;2023-02-28T07:42:33;83.88;;;54.58;;
46411;SDS011;32113;42.012;24.870;2023-02-28T07:45:02;288.58;;;166.50;;
46411;SDS011;32113;42.012;24.870;2023-02-28T07:47:29;157.03;;;88.43;;
46411;SDS011;32113;42.012;24.870;2023-02-28T07:49:55;66.75;;;38.85;;
46411;SDS011;32113;42.012;24.870;2023-02-28T07:52:21;297.75;;;173.27;;
46411;SDS011;32113;42.012;24.870;2023-02-28T07:54:48;73.60;;;41.22;;
46411;SDS011;32113;42.012;24.870;2023-02-28T07:57:14;81.68;;;50.75;;
46411;SDS011;32113;42.012;24.870;2023-02-28T07:59:39;46.33;;;27.48;;
46411;SDS011;32113;42.012;24.870;2023-02-28T08:02:05;35.15;;;21.70;;
46411;SDS011;32113;42.012;24.870;2023-02-28T08:04:33;124.60;;;71.30;;
46411;SDS011;32113;42.012;24.870;2023-02-28T08:06:59;47.35;;;27.75;;
46411;SDS011;32113;42.012;24.870;2023-02-28T08:09:24;111.35;;;64.55;;
46411;SDS011;32113;42.012;24.870;2023-02-28T08:11:50;110.07;;;70.82;;
46411;SDS011;32113;42.012;24.870;2023-02-28T08:14:15;32.33;;;20.38;;
46411;SDS011;32113;42.012;24.870;2023-02-28T08:16:40;88.78;;;39.40;;
46411;SDS011;32113;42.012;24.870;2023-02-28T08:19:07;87.47;;;50.15;;
46411;SDS011;32113;42.012;24.870;2023-02-28T08:21:33;74.65;;;38.78;;
46411;SDS011;32113;42.012;24.870;2023-02-28T08:23:59;64.25;;;42.85;;
46411;SDS011;32113;42.012;24.870;2023-02-28T08:26:24;80.60;;;54.17;;
46411;SDS011;32113;42.012;24.870;2023-02-28T08:28:50;42.65;;;29.70;;
46411;SDS011;32113;42.012;24.870;2023-02-28T08:31:16;42.58;;;28.60;;
46411;SDS011;32113;42.012;24.870;2023-02-28T08:33:42;44.05;;;26.55;;
46411;SDS011;32113;42.012;24.870;2023-02-28T08:36:09;46.60;;;28.58;;
46411;SDS011;32113;42.012;24.870;2023-02-28T08:38:35;58.03;;;33.53;;
46411;SDS011;32113;42.012;24.870;2023-02-28T08:41:06;52.90;;;31.30;;
46411;SDS011;32113;42.012;24.870;2023-02-28T08:43:34;37.92;;;23.00;;
46411;SDS011;32113;42.012;24.870;2023-02-28T08:46:00;40.38;;;22.35;;
46411;SDS011;32113;42.012;24.870;2023-02-28T08:48:27;45.40;;;24.05;;
46411;SDS011;32113;42.012;24.870;2023-02-28T08:51:01;42.40;;;28.60;;
46411;SDS011;32113;42.012;24.870;2023-02-28T08:53:29;41.08;;;24.42;;
46411;SDS011;32113;42.012;24.870;2023-02-28T08:56:01;40.78;;;22.35;;
46411;SDS011;32113;42.012;24.870;2023-02-28T08:58:29;40.20;;;23.45;;
46411;SDS011;32113;42.012;24.870;2023-02-28T09:00:54;35.22;;;20.20;;
46411;SDS011;32113;42.012;24.870;2023-02-28T09:03:20;36.28;;;19.88;;
46411;SDS011;32113;42.012;24.870;2023-02-28T09:05:53;54.15;;;33.05;;
46411;SDS011;32113;42.012;24.870;2023-02-28T09:08:20;43.97;;;30.85;;
46411;SDS011;32113;42.012;24.870;2023-02-28T09:10:45;63.30;;;39.13;;
46411;SDS011;32113;42.012;24.870;2023-02-28T09:13:12;53.05;;;31.58;;
46411;SDS011;32113;42.012;24.870;2023-02-28T09:15:38;60.13;;;37.42;;
46411;SDS011;32113;42.012;24.870;2023-02-28T09:18:04;61.72;;;32.65;;
46411;SDS011;32113;42.012;24.870;2023-02-28T09:20:29;57.22;;;36.72;;
46411;SDS011;32113;42.012;24.870;2023-02-28T09:22:54;69.10;;;41.70;;
46411;SDS011;32113;42.012;24.870;2023-02-28T09:25:20;96.40;;;56.63;;
46411;SDS011;32113;42.012;24.870;2023-02-28T09:27:46;43.75;;;25.42;;
46411;SDS011;32113;42.012;24.870;2023-02-28T09:30:11;71.30;;;42.92;;
46411;SDS011;32113;42.012;24.870;2023-02-28T09:32:37;89.85;;;51.53;;
46411;SDS011;32113;42.012;24.870;2023-02-28T09:35:02;51.75;;;34.35;;
46411;SDS011;32113;42.012;24.870;2023-02-28T09:37:29;59.85;;;34.10;;
46411;SDS011;32113;42.012;24.870;2023-02-28T09:39:56;58.05;;;34.28;;
46411;SDS011;32113;42.012;24.870;2023-02-28T09:42:23;63.92;;;36.58;;
46411;SDS011;32113;42.012;24.870;2023-02-28T09:44:55;60.53;;;33.55;;
46411;SDS011;32113;42.012;24.870;2023-02-28T09:49:58;41.13;;;28.17;;
46411;SDS011;32113;42.012;24.870;2023-02-28T09:52:31;45.47;;;29.50;;
46411;SDS011;32113;42.012;24.870;2023-02-28T09:57:47;64.03;;;39.95;;
46411;SDS011;32113;42.012;24.870;2023-02-28T10:02:55;67.63;;;43.38;;
46411;SDS011;32113;42.012;24.870;2023-02-28T10:05:41;115.88;;;71.78;;
46411;SDS011;32113;42.012;24.870;2023-02-28T10:08:13;178.95;;;100.43;;
46411;SDS011;32113;42.012;24.870;2023-02-28T10:10:57;141.60;;;81.07;;
46411;SDS011;32113;42.012;24.870;2023-02-28T10:16:47;159.70;;;98.45;;
46411;SDS011;32113;42.012;24.870;2023-02-28T10:18:47;80.32;;;47.67;;
46411;SDS011;32113;42.012;24.870;2023-02-28T10:21:59;68.32;;;44.78;;
46411;SDS011;32113;42.012;24.870;2023-02-28T10:24:21;106.82;;;69.93;;
46411;SDS011;32113;42.012;24.870;2023-02-28T10:26:56;155.82;;;119.07;;
46411;SDS011;32113;42.012;24.870;2023-02-28T10:29:25;66.70;;;44.00;;
46411;SDS011;32113;42.012;24.870;2023-02-28T10:31:52;54.40;;;40.92;;
46411;SDS011;32113;42.012;24.870;2023-02-28T10:34:17;44.53;;;31.65;;
46411;SDS011;32113;42.012;24.870;2023-02-28T10:36:43;39.55;;;29.42;;
46411;SDS011;32113;42.012;24.870;2023-02-28T10:40:11;44.95;;;31.83;;
46411;SDS011;32113;42.012;24.870;2023-02-28T10:42:04;46.00;;;31.70;;
46411;SDS011;32113;42.012;24.870;2023-02-28T10:44:43;48.03;;;33.47;;
46411;SDS011;32113;42.012;24.870;2023-02-28T10:47:13;52.85;;;36.47;;
46411;SDS011;32113;42.012;24.870;2023-02-28T10:49:46;61.05;;;41.83;;
46411;SDS011;32113;42.012;24.870;2023-02-28T10:52:12;58.13;;;41.75;;
46411;SDS011;32113;42.012;24.870;2023-02-28T10:54:38;53.33;;;35.20;;
46411;SDS011;32113;42.012;24.870;2023-02-28T10:57:08;57.63;;;41.90;;
46411;SDS011;32113;42.012;24.870;2023-02-28T10:59:42;42.72;;;32.92;;
46411;SDS011;32113;42.012;24.870;2023-02-28T11:04:58;57.67;;;34.67;;
46411;SDS011;32113;42.012;24.870;2023-02-28T11:07:25;61.67;;;44.03;;
46411;SDS011;32113;42.012;24.870;2023-02-28T11:09:51;75.95;;;49.20;;
46411;SDS011;32113;42.012;24.870;2023-02-28T11:12:36;56.33;;;39.42;;
46411;SDS011;32113;42.012;24.870;2023-02-28T11:15:07;42.33;;;31.60;;
46411;SDS011;32113;42.012;24.870;2023-02-28T11:18:01;49.97;;;36.28;;
46411;SDS011;32113;42.012;24.870;2023-02-28T11:20:47;47.88;;;35.85;;
46411;SDS011;32113;42.012;24.870;2023-02-28T11:23:15;59.00;;;39.30;;
46411;SDS011;32113;42.012;24.870;2023-02-28T11:25:46;47.08;;;33.55;;
46411;SDS011;32113;42.012;24.870;2023-02-28T11:31:14;57.53;;;37.90;;
46411;SDS011;32113;42.012;24.870;2023-02-28T11:33:45;53.53;;;38.05;;
46411;SDS011;32113;42.012;24.870;2023-02-28T11:36:13;101.78;;;63.20;;
46411;SDS011;32113;42.012;24.870;2023-02-28T11:38:41;107.55;;;68.28;;
46411;SDS011;32113;42.012;24.870;2023-02-28T11:43:55;42.47;;;30.20;;
46411;SDS011;32113;42.012;24.870;2023-02-28T11:46:39;52.63;;;32.58;;
46411;SDS011;32113;42.012;24.870;2023-02-28T11:51:48;57.33;;;37.28;;
46411;SDS011;32113;42.012;24.870;2023-02-28T11:54:32;60.53;;;35.03;;
46411;SDS011;32113;42.012;24.870;2023-02-28T12:02:42;51.05;;;34.33;;
46411;SDS011;32113;42.012;24.870;2023-02-28T12:10:26;63.95;;;39.40;;
46411;SDS011;32113;42.012;24.870;2023-02-28T12:13:12;54.63;;;36.60;;
46411;SDS011;32113;42.012;24.870;2023-02-28T12:21:36;41.15;;;29.38;;
46411;SDS011;32113;42.012;24.870;2023-02-28T12:27:05;50.92;;;34.65;;
46411;SDS011;32113;42.012;24.870;2023-02-28T12:32:27;50.88;;;35.05;;
46411;SDS011;32113;42.012;24.870;2023-02-28T12:37:39;56.33;;;33.70;;
46411;SDS011;32113;42.012;24.870;2023-02-28T12:42:47;44.97;;;30.67;;
46411;SDS011;32113;42.012;24.870;2023-02-28T12:47:48;62.05;;;38.38;;
46411;SDS011;32113;42.012;24.870;2023-02-28T12:50:22;47.28;;;30.92;;
46411;SDS011;32113;42.012;24.870;2023-02-28T12:55:56;53.17;;;36.97;;
46411;SDS011;32113;42.012;24.870;2023-02-28T12:59:01;196.75;;;112.53;;
46411;SDS011;32113;42.012;24.870;2023-02-28T13:01:42;49.55;;;32.38;;
46411;SDS011;32113;42.012;24.870;2023-02-28T13:08:20;41.70;;;29.63;;
46411;SDS011;32113;42.012;24.870;2023-02-28T13:10:21;39.08;;;28.70;;
46411;SDS011;32113;42.012;24.870;2023-02-28T13:12:48;48.63;;;31.90;;
46411;SDS011;32113;42.012;24.870;2023-02-28T13:17:53;42.17;;;29.75;;
46411;SDS011;32113;42.012;24.870;2023-02-28T13:20:23;52.25;;;32.05;;
46411;SDS011;32113;42.012;24.870;2023-02-28T13:22:59;57.15;;;35.67;;
46411;SDS011;32113;42.012;24.870;2023-02-28T13:28:11;41.35;;;30.05;;
46411;SDS011;32113;42.012;24.870;2023-02-28T13:38:43;57.95;;;36.92;;
46411;SDS011;32113;42.012;24.870;2023-02-28T13:44:14;48.58;;;33.97;;
46411;SDS011;32113;42.012;24.870;2023-02-28T13:51:50;51.00;;;36.28;;
46411;SDS011;32113;42.012;24.870;2023-02-28T14:05:29;75.00;;;54.90;;
46411;SDS011;32113;42.012;24.870;2023-02-28T14:07:58;54.78;;;40.00;;
46411;SDS011;32113;42.012;24.870;2023-02-28T14:10:31;44.47;;;31.52;;
46411;SDS011;32113;42.012;24.870;2023-02-28T14:13:03;46.97;;;32.17;;
46411;SDS011;32113;42.012;24.870;2023-02-28T14:15:54;47.45;;;31.17;;
46411;SDS011;32113;42.012;24.870;2023-02-28T14:18:29;44.42;;;31.63;;
46411;SDS011;32113;42.012;24.870;2023-02-28T14:20:58;106.32;;;71.20;;
46411;SDS011;32113;42.012;24.870;2023-02-28T14:26:41;47.78;;;35.65;;
46411;SDS011;32113;42.012;24.870;2023-02-28T14:35:22;57.33;;;41.90;;
46411;SDS011;32113;42.012;24.870;2023-02-28T14:37:52;51.83;;;38.20;;
46411;SDS011;32113;42.012;24.870;2023-02-28T14:40:32;114.07;;;73.60;;
46411;SDS011;32113;42.012;24.870;2023-02-28T14:43:00;76.50;;;50.72;;
46411;SDS011;32113;42.012;24.870;2023-02-28T14:45:29;60.47;;;41.63;;
46411;SDS011;32113;42.012;24.870;2023-02-28T14:47:55;56.05;;;37.63;;
46411;SDS011;32113;42.012;24.870;2023-02-28T14:50:23;60.20;;;37.47;;
46411;SDS011;32113;42.012;24.870;2023-02-28T14:52:59;138.55;;;92.50;;
46411;SDS011;32113;42.012;24.870;2023-02-28T14:55:27;78.18;;;55.60;;
46411;SDS011;32113;42.012;24.870;2023-02-28T14:57:56;52.65;;;39.13;;
46411;SDS011;32113;42.012;24.870;2023-02-28T15:00:32;45.90;;;35.20;;
46411;SDS011;32113;42.012;24.870;2023-02-28T15:02:59;48.25;;;31.58;;
46411;SDS011;32113;42.012;24.870;2023-02-28T15:05:30;40.80;;;31.83;;
46411;SDS011;32113;42.012;24.870;2023-02-28T15:08:16;50.10;;;35.67;;
46411;SDS011;32113;42.012;24.870;2023-02-28T15:10:42;42.15;;;31.85;;
46411;SDS011;32113;42.012;24.870;2023-02-28T15:13:39;38.15;;;29.27;;
46411;SDS011;32113;42.012;24.870;2023-02-28T15:16:10;81.97;;;61.28;;
46411;SDS011;32113;42.012;24.870;2023-02-28T15:21:28;35.67;;;25.70;;
46411;SDS011;32113;42.012;24.870;2023-02-28T15:29:59;40.67;;;29.02;;
46411;SDS011;32113;42.012;24.870;2023-02-28T15:32:34;44.60;;;32.05;;
46411;SDS011;32113;42.012;24.870;2023-02-28T15:37:53;47.90;;;30.20;;
46411;SDS011;32113;42.012;24.870;2023-02-28T15:40:29;32.33;;;22.93;;
46411;SDS011;32113;42.012;24.870;2023-02-28T15:43:04;27.42;;;20.15;;
46411;SDS011;32113;42.012;24.870;2023-02-28T15:48:09;33.40;;;23.40;;
46411;SDS011;32113;42.012;24.870;2023-02-28T15:50:40;27.67;;;19.17;;
46411;SDS011;32113;42.012;24.870;2023-02-28T15:53:10;21.23;;;17.90;;
46411;SDS011;32113;42.012;24.870;2023-02-28T15:55:53;25.45;;;18.02;;
46411;SDS011;32113;42.012;24.870;2023-02-28T15:58:23;26.20;;;17.70;;
46411;SDS011;32113;42.012;24.870;2023-02-28T16:01:36;26.20;;;18.73;;
46411;SDS011;32113;42.012;24.870;2023-02-28T16:03:44;28.77;;;21.02;;
46411;SDS011;32113;42.012;24.870;2023-02-28T16:08:41;27.13;;;20.27;;
46411;SDS011;32113;42.012;24.870;2023-02-28T16:11:08;27.65;;;20.67;;
46411;SDS011;32113;42.012;24.870;2023-02-28T16:13:35;32.55;;;23.08;;
46411;SDS011;32113;42.012;24.870;2023-02-28T16:16:01;51.72;;;31.15;;
46411;SDS011;32113;42.012;24.870;2023-02-28T16:18:26;40.58;;;25.17;;
46411;SDS011;32113;42.012;24.870;2023-02-28T16:20:52;35.15;;;23.48;;
46411;SDS011;32113;42.012;24.870;2023-02-28T16:23:17;30.17;;;20.35;;
46411;SDS011;32113;42.012;24.870;2023-02-28T16:25:43;32.60;;;20.90;;
46411;SDS011;32113;42.012;24.870;2023-02-28T16:31:16;59.35;;;34.17;;
46411;SDS011;32113;42.012;24.870;2023-02-28T16:33:44;28.30;;;20.45;;
46411;SDS011;32113;42.012;24.870;2023-02-28T16:36:14;22.67;;;17.60;;
46411;SDS011;32113;42.012;24.870;2023-02-28T16:38:41;39.35;;;26.20;;
46411;SDS011;32113;42.012;24.870;2023-02-28T16:41:07;49.97;;;30.88;;
46411;SDS011;32113;42.012;24.870;2023-02-28T16:43:47;59.15;;;32.75;;
46411;SDS011;32113;42.012;24.870;2023-02-28T16:48:41;25.15;;;18.52;;
46411;SDS011;32113;42.012;24.870;2023-02-28T16:51:13;34.70;;;23.65;;
46411;SDS011;32113;42.012;24.870;2023-02-28T16:53:40;29.70;;;20.95;;
46411;SDS011;32113;42.012;24.870;2023-02-28T16:56:06;27.55;;;19.23;;
46411;SDS011;32113;42.012;24.870;2023-02-28T16:58:35;31.95;;;20.67;;
46411;SDS011;32113;42.012;24.870;2023-02-28T17:01:02;18.20;;;13.27;;
46411;SDS011;32113;42.012;24.870;2023-02-28T17:03:28;24.10;;;17.30;;